• Join FlightAware (Why Join?)
  • Login
  • US Flag 
12:53AM EDT


 

Airport Tracker/Info


-or-


 

Live Flight TrackerFlight Track Log ✈ UAL4401 ✈ 08-May-2013 ✈ KIAH - KSAT

Flight Track Log - Related Links

Times and Time Zones

All times are in EDT time to prevent confusion due to time zone crossing. See the UAL4401 flight status page for this flight to view local times or setup timezone preferences in your user account.

Time Position Orientation Groundspeed Altitude Reporting Facility
EDT Latitude Longitude Course Direction KTS MPH feet Rate Location/Type
03:41PM 29.9639 -95.3433 247° West 153 176 700  Level Houston Center
03:41PM 29.9306 -95.3714 216° Southwest 209 241 2,500 2,460 Climbing Houston Center
03:42PM 29.9097 -95.4414 251° West 257 296 5,300 2,520 Climbing Houston Center
03:43PM 29.9069 -95.4525 254° West 237 273 5,800 2,760 Climbing Houston Center
03:44PM 29.8424 -95.7561 249° West  Level FlightAware Approximate
03:44PM 29.8911 -95.5375 258° West 277 319 8,400  Level Houston Center
03:45PM 29.8052 -95.8609 247° West  Level FlightAware Approximate
03:45PM 29.8761 -95.6261 259° West 291 335 10,000  Level Houston Center
03:46PM 29.7672 -95.9652 247° West  Level FlightAware Approximate
03:46PM 29.8583 -95.7342 259° West 368 423 11,100  Level Houston Center
03:47PM 29.8347 -95.8669 258° West 356 410 13,400 2,040 Climbing Houston Center
03:48PM 29.8147 -95.9764 258° West 353 406 15,900 1,200 Climbing Houston Center
03:49PM 29.7944 -96.0925 259° West 360 414 16,000  Climbing Houston Center
03:50PM 29.7817 -96.2144 263° West 384 442 16,000  Level Houston Center
03:51PM 29.7917 -96.3594 275° West 382 440 16,000  Level Houston Center
03:52PM 29.8011 -96.4792 275° West 380 437 16,000  Level Houston Center
03:53PM 29.8106 -96.6006 275° West 383 441 16,000  Level Houston Center
03:54PM 29.8183 -96.7200 274° West 379 436 16,000  Level Houston Center
03:55PM 29.8278 -96.8389 275° West 377 434 16,000  Level Houston Center
03:56PM 29.8378 -96.9808 275° West 375 432 16,000 -180 Level Houston Center
03:57PM 29.8467 -97.0992 275° West 373 429 15,700 -660 Descending Houston Center
03:58PM 29.8550 -97.2164 275° West 370 426 14,700 -1,020 Descending Houston Center
03:59PM 29.8631 -97.3381 274° West 379 436 13,700 -840 Descending Houston Center
04:00PM 29.8708 -97.4544 274° West 370 426 13,000 -360 Descending Houston Center
04:01PM 29.8794 -97.5947 274° West 368 423 13,000  Level Houston Center
04:02PM 29.8842 -97.6681 274° West 370 426 13,000 60 Level Houston Center
04:02PM 29.8886 -97.7133 276° West 371 427 13,100  Climbing Houston Center
04:03PM 29.8967 -97.8403 274° West 374 430 13,000 -480 Descending Houston Center
04:04PM 29.8611 -97.9508 250° West 364 419 12,200 -900 Descending Houston Center
04:05PM 29.8164 -98.0553 244° Southwest 364 419 11,200 -1,020 Descending Houston Center
04:06PM 29.7736 -98.1569 244° Southwest 356 410 10,200 -840 Descending Houston Center
04:07PM 29.7372 -98.2408 243° Southwest 274 315 9,500 -1,080 Descending Houston Center
04:08PM 29.7044 -98.3169 244° Southwest 255 293 8,100 -1,140 Descending Houston Center
04:09PM 29.6700 -98.3981 244° Southwest 260 299 7,200 -1,380 Descending Houston Center
04:11PM 29.6633 -98.4889 265° West 263 303 5,100 -1,620 Descending Houston Center
04:12PM 29.6981 -98.5439 306° West 271 312 4,000 -1,200 Descending Houston Center
04:13PM 29.6869 -98.6078 259° West 228 262 3,000 -900 Descending Houston Center
04:13PM 29.6750 -98.6100 189° South 220 253 2,900  Descending Houston Center
04:14PM 29.6308 -98.5903 159° South 193 222 3,000  Climbing Houston Center
04:14PM 29.6194 -98.5831 151° Southeast 201 231 2,900 -600 Descending Houston Center
04:15PM 29.5961 -98.5536 132° Southeast 153 176 2,400 -720 Descending Houston Center
04:15PM 29.5900 -98.5450 129° Southeast 157 181 2,200 -720 Descending Houston Center